Time;durP1;ratioP1;P1;durP2;ratioP2;P2;SDS_P1;SDS_P2;PMS_P1;PMS_P2;Temp;Humidity;BMP_temperature;BMP_pressure;BME280_temperature;BME280_humidity;BME280_pressure;Samples;Min_cycle;Max_cycle;Signal;HPM_P1;HPM_P2
2022/03/15 00:01:17;;;;;;;0.85;0.77;;;;;;;;;;5028300;28;20038;-73
2022/03/15 00:03:42;;;;;;;1.38;1.23;;;;;;;;;;5030551;28;20083;-73
2022/03/15 00:06:08;;;;;;;0.90;0.75;;;;;;;;;;5039353;28;20033;-73
2022/03/15 00:08:33;;;;;;;0.90;0.90;;;;;;;;;;5036320;28;20108;-73
2022/03/15 00:11:05;;;;;;;0.75;0.32;;;;;;;;;;5041386;28;20167;-73
2022/03/15 00:13:36;;;;;;;0.32;0.32;;;;;;;;;;5030264;28;20017;-72
2022/03/15 00:16:03;;;;;;;1.90;1.15;;;;;;;;;;5034360;28;20045;-73
2022/03/15 00:18:30;;;;;;;0.63;0.35;;;;;;;;;;5036258;28;20030;-73
2022/03/15 00:21:04;;;;;;;0.25;0.25;;;;;;;;;;5024674;28;20026;-73
2022/03/15 00:23:30;;;;;;;1.80;1.67;;;;;;;;;;5035845;28;20033;-73
2022/03/15 00:25:56;;;;;;;0.93;0.17;;;;;;;;;;5041430;28;20031;-73
2022/03/15 00:28:24;;;;;;;0.10;0.10;;;;;;;;;;5035952;28;20029;-73
2022/03/15 00:30:50;;;;;;;0.65;0.50;;;;;;;;;;5034468;28;20036;-73
2022/03/15 00:33:16;;;;;;;0.85;0.77;;;;;;;;;;5036060;28;20029;-71
2022/03/15 00:35:42;;;;;;;0.55;0.55;;;;;;;;;;5036041;28;20025;-72
2022/03/15 00:38:08;;;;;;;0.95;0.95;;;;;;;;;;5035860;28;20116;-73
2022/03/15 00:40:33;;;;;;;0.95;0.95;;;;;;;;;;5034413;28;20083;-72
2022/03/15 00:43:01;;;;;;;2.38;0.85;;;;;;;;;;5028831;28;20108;-73
2022/03/15 00:45:30;;;;;;;0.70;0.70;;;;;;;;;;5035529;28;20049;-83
2022/03/15 00:47:58;;;;;;;2.67;1.23;;;;;;;;;;5017988;28;20036;-84
2022/03/15 00:50:32;;;;;;;4.25;0.30;;;;;;;;;;5011544;28;20413;-83
2022/03/15 00:52:59;;;;;;;0.10;0.10;;;;;;;;;;5019562;28;20059;-83
2022/03/15 00:55:25;;;;;;;0.32;0.32;;;;;;;;;;5021542;28;20099;-85
2022/03/15 00:57:50;;;;;;;0.77;0.77;;;;;;;;;;5034807;28;20025;-83
2022/03/15 01:00:19;;;;;;;1.33;1.23;;;;;;;;;;5021572;28;20025;-83
2022/03/15 01:02:44;;;;;;;1.45;1.27;;;;;;;;;;5016345;28;20022;-81
2022/03/15 01:05:12;;;;;;;0.20;0.20;;;;;;;;;;5022930;28;20580;-83
2022/03/15 01:07:38;;;;;;;0.45;0.40;;;;;;;;;;5025159;28;20029;-83
2022/03/15 01:10:06;;;;;;;0.00;0.00;;;;;;;;;;5016723;28;20032;-82
2022/03/15 01:12:35;;;;;;;1.55;1.08;;;;;;;;;;5034889;28;20022;-82
2022/03/15 01:15:10;;;;;;;0.98;0.88;;;;;;;;;;5012302;28;20328;-82
2022/03/15 01:17:35;;;;;;;0.20;0.20;;;;;;;;;;5034179;28;20056;-82
2022/03/15 01:20:05;;;;;;;0.73;0.73;;;;;;;;;;5015629;28;20431;-81
2022/03/15 01:22:31;;;;;;;0.47;0.40;;;;;;;;;;5030082;28;20021;-81
2022/03/15 01:24:56;;;;;;;0.22;0.10;;;;;;;;;;5034278;28;20033;-80
2022/03/15 01:27:22;;;;;;;0.03;0.03;;;;;;;;;;5033904;28;20506;-82
2022/03/15 01:29:49;;;;;;;0.40;0.28;;;;;;;;;;5034419;28;20046;-81
2022/03/15 01:32:19;;;;;;;0.73;0.73;;;;;;;;;;5029112;28;20105;-83
2022/03/15 01:34:54;;;;;;;0.60;0.60;;;;;;;;;;5030293;28;20332;-84
2022/03/15 01:37:24;;;;;;;0.20;0.20;;;;;;;;;;5034836;28;20025;-85
2022/03/15 01:39:53;;;;;;;2.53;1.70;;;;;;;;;;5032428;28;20094;-84
2022/03/15 01:42:18;;;;;;;0.25;0.25;;;;;;;;;;5033148;28;20088;-82
2022/03/15 01:44:47;;;;;;;0.43;0.43;;;;;;;;;;5033999;28;20603;-85
2022/03/15 01:47:13;;;;;;;0.08;0.08;;;;;;;;;;5029357;28;20034;-83
2022/03/15 01:49:39;;;;;;;0.20;0.20;;;;;;;;;;5033979;28;20021;-85
2022/03/15 01:52:05;;;;;;;7.07;2.17;;;;;;;;;;5017175;28;20370;-83
2022/03/15 01:54:34;;;;;;;0.20;0.20;;;;;;;;;;5031021;28;20041;-83
2022/03/15 01:57:03;;;;;;;1.08;1.05;;;;;;;;;;5031449;28;20025;-83
2022/03/15 01:59:31;;;;;;;1.10;0.93;;;;;;;;;;5033391;28;20109;-83
2022/03/15 02:02:01;;;;;;;0.20;0.20;;;;;;;;;;5046873;28;20047;-85
2022/03/15 02:04:26;;;;;;;0.75;0.75;;;;;;;;;;5029261;28;20037;-84
2022/03/15 02:07:18;;;;;;;2.05;0.77;;;;;;;;;;5034556;28;20036;-84
2022/03/15 02:09:44;;;;;;;0.10;0.10;;;;;;;;;;5033402;28;20018;-84
2022/03/15 02:12:10;;;;;;;0.35;0.35;;;;;;;;;;5033142;28;20405;-84
2022/03/15 02:14:37;;;;;;;1.25;1.15;;;;;;;;;;5031607;28;20328;-83
2022/03/15 02:17:05;;;;;;;4.28;1.17;;;;;;;;;;5028348;28;20420;-84
2022/03/15 02:19:31;;;;;;;1.45;1.05;;;;;;;;;;5039286;28;20056;-84
2022/03/15 02:22:01;;;;;;;0.73;0.73;;;;;;;;;;5035329;28;20439;-84
2022/03/15 02:24:26;;;;;;;0.10;0.10;;;;;;;;;;5037060;28;20079;-86
2022/03/15 02:26:52;;;;;;;0.20;0.10;;;;;;;;;;5034273;28;20455;-84
2022/03/15 02:29:18;;;;;;;0.68;0.68;;;;;;;;;;5033601;28;20025;-84
2022/03/15 02:31:43;;;;;;;0.10;0.10;;;;;;;;;;5039902;28;20044;-84
2022/03/15 02:34:12;;;;;;;0.20;0.20;;;;;;;;;;5034310;28;20450;-82
2022/03/15 02:36:37;;;;;;;1.15;1.10;;;;;;;;;;5034003;28;20028;-84
2022/03/15 02:39:08;;;;;;;0.50;0.50;;;;;;;;;;5037689;28;20033;-85
2022/03/15 02:41:33;;;;;;;0.43;0.43;;;;;;;;;;5031097;28;20451;-81
2022/03/15 02:43:58;;;;;;;0.30;0.30;;;;;;;;;;5034061;28;20035;-83
2022/03/15 02:46:29;;;;;;;0.28;0.28;;;;;;;;;;5040299;28;20033;-84
2022/03/15 02:48:59;;;;;;;0.52;0.40;;;;;;;;;;5038483;28;20386;-83
2022/03/15 02:51:25;;;;;;;0.30;0.30;;;;;;;;;;5041055;28;20434;-85
2022/03/15 02:53:53;;;;;;;0.10;0.10;;;;;;;;;;5041677;28;20048;-84
2022/03/15 02:56:18;;;;;;;1.17;1.08;;;;;;;;;;5009220;28;20021;-84
2022/03/15 02:58:44;;;;;;;0.17;0.17;;;;;;;;;;5037166;28;20029;-81
2022/03/15 03:01:11;;;;;;;2.72;1.58;;;;;;;;;;5036648;28;20029;-84
2022/03/15 03:03:37;;;;;;;0.80;0.73;;;;;;;;;;5042485;28;20047;-83
2022/03/15 03:06:05;;;;;;;1.00;0.90;;;;;;;;;;5039159;28;20439;-83
2022/03/15 03:08:31;;;;;;;0.25;0.25;;;;;;;;;;5030082;28;20079;-83
2022/03/15 03:10:57;;;;;;;0.77;0.38;;;;;;;;;;5054143;28;20038;-81
2022/03/15 03:13:26;;;;;;;0.38;0.38;;;;;;;;;;5040928;28;20089;-83
2022/03/15 03:15:54;;;;;;;1.10;0.57;;;;;;;;;;5036962;28;20083;-83
2022/03/15 03:18:20;;;;;;;0.90;0.85;;;;;;;;;;5039090;28;20033;-83
2022/03/15 03:20:46;;;;;;;0.17;0.17;;;;;;;;;;5037550;28;20048;-83
2022/03/15 03:23:12;;;;;;;0.50;0.45;;;;;;;;;;5037551;28;20033;-82
2022/03/15 03:25:41;;;;;;;0.65;0.63;;;;;;;;;;5036582;28;20447;-85
2022/03/15 03:28:08;;;;;;;0.95;0.95;;;;;;;;;;5040906;28;20188;-83
2022/03/15 03:30:37;;;;;;;0.32;0.30;;;;;;;;;;5037293;28;20060;-83
2022/03/15 03:33:02;;;;;;;1.23;1.17;;;;;;;;;;5057016;28;20048;-83
2022/03/15 03:35:30;;;;;;;0.75;0.15;;;;;;;;;;5049634;28;20438;-80
2022/03/15 03:37:56;;;;;;;0.68;0.68;;;;;;;;;;5061979;28;20032;-82
2022/03/15 03:40:21;;;;;;;8.85;1.17;;;;;;;;;;5055042;28;20064;-83
2022/03/15 03:42:47;;;;;;;0.20;0.20;;;;;;;;;;5040856;28;20056;-82
2022/03/15 03:45:14;;;;;;;0.85;0.85;;;;;;;;;;5036095;28;20033;-83
2022/03/15 03:47:40;;;;;;;1.63;1.52;;;;;;;;;;5030250;28;20025;-83
2022/03/15 03:50:08;;;;;;;0.80;0.65;;;;;;;;;;5037476;28;20482;-85
2022/03/15 03:52:33;;;;;;;0.17;0.17;;;;;;;;;;5037683;28;20033;-85
2022/03/15 03:55:01;;;;;;;0.75;0.75;;;;;;;;;;5051224;28;20406;-83
2022/03/15 03:57:29;;;;;;;0.08;0.08;;;;;;;;;;5051312;28;20037;-84
2022/03/15 03:59:56;;;;;;;0.47;0.47;;;;;;;;;;5031080;28;20037;-83
2022/03/15 04:02:22;;;;;;;0.28;0.28;;;;;;;;;;5039243;28;20100;-85
2022/03/15 04:04:47;;;;;;;0.90;0.10;;;;;;;;;;5030532;28;20063;-84
2022/03/15 04:07:14;;;;;;;0.47;0.47;;;;;;;;;;5039079;28;20412;-85
2022/03/15 04:09:40;;;;;;;1.15;1.05;;;;;;;;;;5051803;28;20021;-84
2022/03/15 04:12:08;;;;;;;0.20;0.20;;;;;;;;;;5042679;28;20079;-85
2022/03/15 04:14:36;;;;;;;0.52;0.52;;;;;;;;;;5035537;28;20072;-84
2022/03/15 04:17:06;;;;;;;0.35;0.35;;;;;;;;;;5040196;28;20037;-84
2022/03/15 04:19:32;;;;;;;0.52;0.52;;;;;;;;;;5032759;28;20049;-85
2022/03/15 04:21:57;;;;;;;0.75;0.75;;;;;;;;;;5036807;28;20431;-83
2022/03/15 04:24:25;;;;;;;0.75;0.75;;;;;;;;;;5040561;28;20083;-84
2022/03/15 04:26:51;;;;;;;5.88;2.03;;;;;;;;;;5036280;28;20446;-84
2022/03/15 04:29:16;;;;;;;1.02;0.70;;;;;;;;;;5037441;28;20045;-84
2022/03/15 04:31:41;;;;;;;3.90;0.52;;;;;;;;;;5035252;28;20459;-86
2022/03/15 04:34:09;;;;;;;1.98;0.70;;;;;;;;;;5034058;28;20040;-83
2022/03/15 04:36:37;;;;;;;0.43;0.43;;;;;;;;;;5032408;28;20026;-83
2022/03/15 04:39:03;;;;;;;0.63;0.60;;;;;;;;;;5035977;28;20369;-83
2022/03/15 04:41:29;;;;;;;0.95;0.95;;;;;;;;;;5042435;28;20029;-82
2022/03/15 04:43:54;;;;;;;0.40;0.40;;;;;;;;;;5038964;28;20035;-84
2022/03/15 04:46:22;;;;;;;1.33;1.02;;;;;;;;;;5034635;28;20101;-83
2022/03/15 04:48:48;;;;;;;0.10;0.10;;;;;;;;;;5036810;28;20039;-83
2022/03/15 04:51:14;;;;;;;0.40;0.40;;;;;;;;;;5047210;28;20025;-80
2022/03/15 04:53:39;;;;;;;3.90;1.77;;;;;;;;;;5035039;28;20037;-83
2022/03/15 04:56:07;;;;;;;14.40;0.80;;;;;;;;;;5034558;28;20076;-83
2022/03/15 04:58:32;;;;;;;0.00;0.00;;;;;;;;;;5035521;28;20113;-83
2022/03/15 05:00:58;;;;;;;0.57;0.57;;;;;;;;;;5030901;28;20112;-82
2022/03/15 05:03:23;;;;;;;0.90;0.85;;;;;;;;;;5031374;28;20064;-82
2022/03/15 05:05:49;;;;;;;1.77;1.15;;;;;;;;;;5039642;28;20028;-84
2022/03/15 05:08:14;;;;;;;0.00;0.00;;;;;;;;;;5035161;28;20038;-86
2022/03/15 05:13:28;;;;;;;1.30;0.95;;;;;;;;;;5037322;28;20106;-86
2022/03/15 05:15:56;;;;;;;0.73;0.50;;;;;;;;;;5034822;28;20573;-83
2022/03/15 05:18:23;;;;;;;0.05;0.05;;;;;;;;;;5035608;28;20403;-85
2022/03/15 05:20:50;;;;;;;2.92;1.35;;;;;;;;;;5038535;28;20446;-85
2022/03/15 05:23:16;;;;;;;0.65;0.65;;;;;;;;;;5037584;28;20079;-86
2022/03/15 05:25:41;;;;;;;2.10;1.13;;;;;;;;;;5030380;28;20029;-85
2022/03/15 05:28:12;;;;;;;0.63;0.63;;;;;;;;;;5042695;28;20032;-82
2022/03/15 05:30:40;;;;;;;1.02;1.00;;;;;;;;;;5037292;28;20037;-83
2022/03/15 05:33:07;;;;;;;1.92;1.80;;;;;;;;;;5033492;28;20065;-83
2022/03/15 05:35:35;;;;;;;0.55;0.55;;;;;;;;;;5038182;28;20068;-86
2022/03/15 05:38:01;;;;;;;0.28;0.28;;;;;;;;;;5034791;28;20037;-85
2022/03/15 05:40:31;;;;;;;2.45;1.77;;;;;;;;;;5036053;28;20033;-84
2022/03/15 05:42:57;;;;;;;0.10;0.10;;;;;;;;;;5038510;28;20036;-85
2022/03/15 05:45:25;;;;;;;0.43;0.43;;;;;;;;;;5033585;28;20017;-81
2022/03/15 05:47:56;;;;;;;0.80;0.80;;;;;;;;;;5034713;28;20045;-84
2022/03/15 05:50:24;;;;;;;0.30;0.30;;;;;;;;;;5035888;28;20342;-84
2022/03/15 05:52:49;;;;;;;0.90;0.70;;;;;;;;;;5036811;28;20025;-85
2022/03/15 05:55:15;;;;;;;0.10;0.10;;;;;;;;;;5037003;28;20036;-84
2022/03/15 05:57:45;;;;;;;0.25;0.25;;;;;;;;;;5033897;28;20378;-85
2022/03/15 06:00:13;;;;;;;1.60;1.08;;;;;;;;;;5027253;28;20545;-85
2022/03/15 06:02:41;;;;;;;3.80;0.52;;;;;;;;;;5027360;28;20021;-85
2022/03/15 06:05:07;;;;;;;1.17;0.70;;;;;;;;;;5025669;28;20021;-85
2022/03/15 06:07:33;;;;;;;1.25;1.17;;;;;;;;;;5036092;28;20104;-84
2022/03/15 06:10:01;;;;;;;0.20;0.20;;;;;;;;;;5027444;28;20129;-84
2022/03/15 06:12:26;;;;;;;0.30;0.30;;;;;;;;;;5032651;28;20029;-86
2022/03/15 06:14:52;;;;;;;0.22;0.22;;;;;;;;;;5033489;28;20052;-84
2022/03/15 06:17:18;;;;;;;1.48;0.65;;;;;;;;;;5033190;28;20041;-85
2022/03/15 06:19:43;;;;;;;0.43;0.43;;;;;;;;;;5034475;28;20833;-85
2022/03/15 06:22:09;;;;;;;2.10;1.10;;;;;;;;;;5032864;28;20022;-85
2022/03/15 06:24:34;;;;;;;0.77;0.77;;;;;;;;;;5034853;28;20033;-86
2022/03/15 06:27:00;;;;;;;0.10;0.10;;;;;;;;;;5034466;28;20044;-85
2022/03/15 06:29:26;;;;;;;1.27;0.20;;;;;;;;;;5039633;28;20036;-84
2022/03/15 06:31:52;;;;;;;0.77;0.32;;;;;;;;;;5037747;28;20592;-84
2022/03/15 06:34:17;;;;;;;0.32;0.32;;;;;;;;;;5035595;28;20056;-83
2022/03/15 06:36:43;;;;;;;0.55;0.32;;;;;;;;;;5034239;28;20208;-84
2022/03/15 06:39:08;;;;;;;2.22;0.77;;;;;;;;;;5043884;28;20028;-83
2022/03/15 06:41:39;;;;;;;0.32;0.32;;;;;;;;;;5036650;28;20150;-82
2022/03/15 06:44:05;;;;;;;1.42;0.73;;;;;;;;;;5028052;28;20562;-84
2022/03/15 06:46:31;;;;;;;1.65;0.77;;;;;;;;;;5039229;28;20033;-84
2022/03/15 06:48:59;;;;;;;0.57;0.43;;;;;;;;;;5041737;28;20025;-85
2022/03/15 06:51:25;;;;;;;0.70;0.70;;;;;;;;;;5033941;28;20033;-85
2022/03/15 06:53:53;;;;;;;0.25;0.25;;;;;;;;;;5033653;28;20021;-84
2022/03/15 06:56:20;;;;;;;1.02;0.75;;;;;;;;;;5038902;28;20339;-85
2022/03/15 06:58:49;;;;;;;1.17;0.82;;;;;;;;;;5036572;28;20036;-84
2022/03/15 07:01:14;;;;;;;0.30;0.30;;;;;;;;;;5033713;28;20159;-86
2022/03/15 07:03:40;;;;;;;3.17;1.00;;;;;;;;;;5033574;28;20041;-85
2022/03/15 07:06:07;;;;;;;2.15;0.55;;;;;;;;;;5032619;28;20450;-85
2022/03/15 07:08:32;;;;;;;0.55;0.55;;;;;;;;;;5036940;28;20028;-86
2022/03/15 07:10:58;;;;;;;0.80;0.80;;;;;;;;;;5027903;28;20501;-85
2022/03/15 07:13:23;;;;;;;0.95;0.95;;;;;;;;;;5041315;28;20332;-85
2022/03/15 07:15:48;;;;;;;0.93;0.93;;;;;;;;;;5029462;28;20033;-82
2022/03/15 07:18:15;;;;;;;0.30;0.30;;;;;;;;;;5036885;28;20029;-86
2022/03/15 07:20:41;;;;;;;0.00;0.00;;;;;;;;;;5027685;28;20083;-85
2022/03/15 07:23:06;;;;;;;0.80;0.65;;;;;;;;;;5020359;28;20438;-85
2022/03/15 07:25:32;;;;;;;0.00;0.00;;;;;;;;;;5037914;28;20029;-84
2022/03/15 07:27:57;;;;;;;0.47;0.47;;;;;;;;;;5031855;28;20087;-86
2022/03/15 07:30:25;;;;;;;0.40;0.40;;;;;;;;;;5044811;28;20152;-85
2022/03/15 07:32:50;;;;;;;1.77;1.25;;;;;;;;;;5043273;28;20037;-83
2022/03/15 07:35:18;;;;;;;0.20;0.20;;;;;;;;;;5035756;28;20040;-85
2022/03/15 07:37:51;;;;;;;0.32;0.32;;;;;;;;;;5032719;28;20040;-84
2022/03/15 07:40:17;;;;;;;7.00;0.50;;;;;;;;;;5030874;28;20360;-87
2022/03/15 07:42:48;;;;;;;0.65;0.55;;;;;;;;;;5034121;28;20036;-85
2022/03/15 07:45:13;;;;;;;0.30;0.28;;;;;;;;;;5028317;28;20116;-84
2022/03/15 07:47:41;;;;;;;1.23;0.68;;;;;;;;;;5047083;28;20096;-85
2022/03/15 07:50:07;;;;;;;1.20;0.75;;;;;;;;;;5035021;28;20052;-86
2022/03/15 07:52:32;;;;;;;0.90;0.90;;;;;;;;;;5030513;28;20059;-84
2022/03/15 07:54:58;;;;;;;0.95;0.60;;;;;;;;;;5019447;28;20044;-83
2022/03/15 07:57:35;;;;;;;1.38;1.23;;;;;;;;;;5028090;28;20612;-85
2022/03/15 08:00:01;;;;;;;0.38;0.38;;;;;;;;;;5032417;28;20022;-84
2022/03/15 08:02:26;;;;;;;0.60;0.60;;;;;;;;;;5035226;28;20048;-85
2022/03/15 08:04:54;;;;;;;0.73;0.73;;;;;;;;;;5036442;28;20512;-85
2022/03/15 08:07:26;;;;;;;0.15;0.15;;;;;;;;;;5036024;28;20335;-84
2022/03/15 08:09:54;;;;;;;0.08;0.08;;;;;;;;;;5041911;28;20061;-86
2022/03/15 08:12:19;;;;;;;0.10;0.10;;;;;;;;;;5030070;28;20507;-82
2022/03/15 08:14:47;;;;;;;6.68;0.55;;;;;;;;;;5034751;28;20172;-82
2022/03/15 08:17:12;;;;;;;3.63;0.45;;;;;;;;;;5033443;28;20029;-84
2022/03/15 08:19:37;;;;;;;0.98;0.57;;;;;;;;;;5051875;28;20454;-86
2022/03/15 08:22:06;;;;;;;0.40;0.40;;;;;;;;;;5033987;28;20029;-84
2022/03/15 08:24:32;;;;;;;0.43;0.40;;;;;;;;;;5027706;28;20028;-85
2022/03/15 08:26:57;;;;;;;0.98;0.80;;;;;;;;;;5018864;28;20029;-84
2022/03/15 08:29:23;;;;;;;0.50;0.32;;;;;;;;;;5036357;28;20469;-85
2022/03/15 08:31:48;;;;;;;0.85;0.80;;;;;;;;;;5034669;28;20029;-84
2022/03/15 08:34:14;;;;;;;0.17;0.17;;;;;;;;;;5034830;28;20029;-84
2022/03/15 08:36:39;;;;;;;0.95;0.45;;;;;;;;;;5051052;28;20033;-85
2022/03/15 08:39:05;;;;;;;0.43;0.43;;;;;;;;;;5033085;28;20354;-84
2022/03/15 08:41:31;;;;;;;0.82;0.80;;;;;;;;;;5027686;28;20487;-82
2022/03/15 08:43:56;;;;;;;2.55;1.33;;;;;;;;;;5032257;28;20508;-84
2022/03/15 08:46:24;;;;;;;1.15;1.02;;;;;;;;;;5034201;28;20049;-84
2022/03/15 08:48:49;;;;;;;2.50;1.23;;;;;;;;;;5034959;28;20419;-89
2022/03/15 08:51:18;;;;;;;1.02;0.98;;;;;;;;;;5017669;28;20108;-87
2022/03/15 08:53:52;;;;;;;0.80;0.80;;;;;;;;;;5030694;28;20022;-84
2022/03/15 08:56:24;;;;;;;1.20;0.93;;;;;;;;;;5017346;28;20521;-73
2022/03/15 08:58:53;;;;;;;0.47;0.47;;;;;;;;;;5032831;28;20034;-74
2022/03/15 09:01:24;;;;;;;1.02;0.65;;;;;;;;;;5037927;28;20031;-74
2022/03/15 09:04:02;;;;;;;1.17;0.85;;;;;;;;;;5035423;28;20128;-73
2022/03/15 09:06:27;;;;;;;3.42;2.13;;;;;;;;;;5033816;28;20098;-74
2022/03/15 09:08:53;;;;;;;1.10;0.85;;;;;;;;;;5032284;28;20034;-74
2022/03/15 09:11:18;;;;;;;0.50;0.50;;;;;;;;;;5029411;28;20037;-74
2022/03/15 09:13:43;;;;;;;0.73;0.68;;;;;;;;;;5031302;28;20400;-74
2022/03/15 09:16:18;;;;;;;2.60;1.55;;;;;;;;;;5029022;28;20474;-73
2022/03/15 09:18:43;;;;;;;1.52;1.42;;;;;;;;;;5031107;28;20033;-73
2022/03/15 09:21:09;;;;;;;0.82;0.80;;;;;;;;;;5029771;28;20105;-73
2022/03/15 09:23:35;;;;;;;0.73;0.35;;;;;;;;;;5031956;28;20432;-74
2022/03/15 09:26:03;;;;;;;1.35;1.25;;;;;;;;;;5027579;28;20057;-75
2022/03/15 09:28:28;;;;;;;8.77;0.98;;;;;;;;;;5033798;28;20021;-75
2022/03/15 09:30:54;;;;;;;1.60;0.75;;;;;;;;;;5036003;28;20040;-73
2022/03/15 09:33:19;;;;;;;0.82;0.63;;;;;;;;;;5031512;28;20494;-74
2022/03/15 09:35:45;;;;;;;0.60;0.60;;;;;;;;;;5036541;28;20363;-74
2022/03/15 09:38:17;;;;;;;6.80;0.75;;;;;;;;;;5030286;28;20045;-74
2022/03/15 09:40:43;;;;;;;0.20;0.20;;;;;;;;;;5034186;28;20021;-73
2022/03/15 09:43:11;;;;;;;2.35;0.77;;;;;;;;;;5033114;28;20052;-73
2022/03/15 09:45:37;;;;;;;1.33;1.15;;;;;;;;;;5033534;28;20037;-73
2022/03/15 09:48:15;;;;;;;2.72;1.35;;;;;;;;;;5029918;28;20037;-73
2022/03/15 09:50:42;;;;;;;1.27;1.17;;;;;;;;;;5030146;28;20060;-74
2022/03/15 09:53:10;;;;;;;4.13;1.55;;;;;;;;;;5034358;28;20361;-74
2022/03/15 09:55:37;;;;;;;0.63;0.60;;;;;;;;;;5033271;28;20049;-73
2022/03/15 09:58:05;;;;;;;0.63;0.63;;;;;;;;;;5026530;28;20037;-73
2022/03/15 10:00:30;;;;;;;2.75;1.27;;;;;;;;;;5031306;28;20072;-73
2022/03/15 10:02:56;;;;;;;5.25;2.15;;;;;;;;;;5030693;28;20049;-73
2022/03/15 10:05:21;;;;;;;0.50;0.50;;;;;;;;;;5034549;28;20104;-73
2022/03/15 10:07:50;;;;;;;5.72;2.05;;;;;;;;;;5033723;28;20060;-73
2022/03/15 10:10:15;;;;;;;1.08;0.43;;;;;;;;;;5035297;28;20129;-74
2022/03/15 10:12:43;;;;;;;0.60;0.60;;;;;;;;;;5031616;28;20490;-74
2022/03/15 10:15:26;;;;;;;0.85;0.80;;;;;;;;;;5024886;28;20447;-73
2022/03/15 10:17:55;;;;;;;1.10;0.55;;;;;;;;;;5030115;28;20083;-73
2022/03/15 10:20:28;;;;;;;1.15;1.05;;;;;;;;;;5033204;28;20358;-73
2022/03/15 10:23:02;;;;;;;9.20;1.35;;;;;;;;;;5032150;28;20060;-73
2022/03/15 10:25:32;;;;;;;2.10;1.35;;;;;;;;;;5043611;28;20026;-73
2022/03/15 10:28:06;;;;;;;1.48;0.50;;;;;;;;;;5048968;28;20037;-73
2022/03/15 10:30:32;;;;;;;0.10;0.10;;;;;;;;;;5031790;28;20446;-73
2022/03/15 10:32:58;;;;;;;0.57;0.57;;;;;;;;;;5030099;28;20099;-73
2022/03/15 10:35:28;;;;;;;0.60;0.60;;;;;;;;;;5034417;28;20434;-73
2022/03/15 10:37:54;;;;;;;0.65;0.65;;;;;;;;;;5027673;28;20026;-73
2022/03/15 10:40:44;;;;;;;0.68;0.68;;;;;;;;;;5032123;28;20446;-73
2022/03/15 10:43:17;;;;;;;0.10;0.10;;;;;;;;;;5029731;28;20056;-73
2022/03/15 10:45:56;;;;;;;1.05;0.98;;;;;;;;;;5026662;28;21748;-72
2022/03/15 10:48:25;;;;;;;0.60;0.60;;;;;;;;;;5042988;28;20063;-72
2022/03/15 10:50:57;;;;;;;1.05;0.75;;;;;;;;;;5032651;28;20473;-72
2022/03/15 10:53:39;;;;;;;0.50;0.50;;;;;;;;;;5029317;28;20025;-73
2022/03/15 10:56:22;;;;;;;0.77;0.60;;;;;;;;;;5049160;28;20112;-73
2022/03/15 10:59:00;;;;;;;0.88;0.80;;;;;;;;;;5031198;28;20032;-73
2022/03/15 11:01:26;;;;;;;2.38;2.13;;;;;;;;;;5031712;28;20022;-73
2022/03/15 11:04:02;;;;;;;6.82;3.75;;;;;;;;;;5037459;28;20034;-73
2022/03/15 11:06:30;;;;;;;1.33;1.10;;;;;;;;;;5036217;28;20029;-74
2022/03/15 11:08:55;;;;;;;0.47;0.47;;;;;;;;;;5039173;28;20100;-74
2022/03/15 11:11:25;;;;;;;0.30;0.30;;;;;;;;;;5039371;28;20108;-76
2022/03/15 11:13:58;;;;;;;0.15;0.15;;;;;;;;;;5035806;28;20025;-73
2022/03/15 11:16:26;;;;;;;1.85;1.65;;;;;;;;;;5036018;28;20374;-73
2022/03/15 11:18:54;;;;;;;0.95;0.63;;;;;;;;;;5029992;28;20497;-73
2022/03/15 11:21:20;;;;;;;0.63;0.63;;;;;;;;;;5035419;28;20021;-73
2022/03/15 11:23:45;;;;;;;1.10;1.00;;;;;;;;;;5036790;28;20026;-73
2022/03/15 11:26:12;;;;;;;0.13;0.13;;;;;;;;;;5029107;28;20029;-73
2022/03/15 11:28:37;;;;;;;1.00;0.28;;;;;;;;;;5034665;28;20017;-73
2022/03/15 11:31:03;;;;;;;0.55;0.15;;;;;;;;;;5043187;28;20235;-76
2022/03/15 11:33:30;;;;;;;0.28;0.28;;;;;;;;;;5036359;28;20025;-75
2022/03/15 11:36:00;;;;;;;0.35;0.35;;;;;;;;;;5035654;28;20040;-73
2022/03/15 11:38:26;;;;;;;0.50;0.50;;;;;;;;;;5036275;28;20024;-73
2022/03/15 11:40:54;;;;;;;0.15;0.15;;;;;;;;;;5037034;28;20180;-73
2022/03/15 11:43:50;;;;;;;0.80;0.80;;;;;;;;;;5035689;28;20350;-73
2022/03/15 11:46:50;;;;;;;0.20;0.20;;;;;;;;;;5034077;28;20036;-72
2022/03/15 11:49:24;;;;;;;0.65;0.65;;;;;;;;;;5034368;28;20034;-72
2022/03/15 11:52:08;;;;;;;0.70;0.38;;;;;;;;;;5016461;28;20350;-72
2022/03/15 11:54:50;;;;;;;0.68;0.50;;;;;;;;;;5021874;28;20091;-75
2022/03/15 11:57:25;;;;;;;0.25;0.25;;;;;;;;;;4993968;28;20030;-74
2022/03/15 11:59:52;;;;;;;0.57;0.55;;;;;;;;;;5020548;28;20045;-74
2022/03/15 12:02:39;;;;;;;0.68;0.60;;;;;;;;;;5035087;28;20488;-75
2022/03/15 12:05:18;;;;;;;0.50;0.50;;;;;;;;;;5029551;28;20060;-74
2022/03/15 12:07:46;;;;;;;0.95;0.43;;;;;;;;;;5017438;28;20071;-75
2022/03/15 12:10:27;;;;;;;0.93;0.43;;;;;;;;;;5027313;28;20099;-74
2022/03/15 12:13:02;;;;;;;0.52;0.52;;;;;;;;;;5029746;28;20057;-74
2022/03/15 12:15:38;;;;;;;0.63;0.63;;;;;;;;;;5014197;28;20378;-75
2022/03/15 12:18:27;;;;;;;0.35;0.35;;;;;;;;;;5028477;28;20037;-74
2022/03/15 12:20:59;;;;;;;0.77;0.77;;;;;;;;;;5036703;28;20049;-74
2022/03/15 12:23:31;;;;;;;1.00;0.90;;;;;;;;;;5036300;28;20041;-74
2022/03/15 12:25:57;;;;;;;0.30;0.30;;;;;;;;;;5026784;28;20108;-72
2022/03/15 12:28:28;;;;;;;0.30;0.30;;;;;;;;;;5034936;28;20538;-74
2022/03/15 12:30:54;;;;;;;0.32;0.32;;;;;;;;;;5035081;28;20111;-74
2022/03/15 12:33:26;;;;;;;0.90;0.55;;;;;;;;;;5036004;28;20053;-73
2022/03/15 12:35:57;;;;;;;;;;;;;;;;;;5024750;28;20056;-74
2022/03/15 12:38:32;;;;;;;0.00;0.00;;;;;;;;;;5042706;28;19924;-74
2022/03/15 12:40:57;;;;;;;0.00;0.00;;;;;;;;;;5033338;28;20417;-74
2022/03/15 12:43:23;;;;;;;0.30;0.30;;;;;;;;;;5017714;28;20112;-74
2022/03/15 12:45:49;;;;;;;0.03;0.03;;;;;;;;;;5022749;28;20044;-75
2022/03/15 12:48:17;;;;;;;0.00;0.00;;;;;;;;;;5030542;28;20029;-74
2022/03/15 12:50:42;;;;;;;0.28;0.17;;;;;;;;;;5031361;28;20036;-74
2022/03/15 12:53:12;;;;;;;2.42;0.60;;;;;;;;;;5030300;28;20026;-74
2022/03/15 12:55:41;;;;;;;0.32;0.32;;;;;;;;;;5034757;28;20104;-74
2022/03/15 12:58:09;;;;;;;0.03;0.03;;;;;;;;;;5040287;28;20061;-74
2022/03/15 13:00:45;;;;;;;0.10;0.10;;;;;;;;;;5020603;28;20033;-74
2022/03/15 13:03:12;;;;;;;0.15;0.10;;;;;;;;;;5029908;28;20366;-75
2022/03/15 13:05:41;;;;;;;0.20;0.20;;;;;;;;;;5032406;28;20473;-76
2022/03/15 13:08:07;;;;;;;0.85;0.47;;;;;;;;;;5026326;28;20029;-77
2022/03/15 13:10:38;;;;;;;0.75;0.75;;;;;;;;;;5033334;28;20091;-75
2022/03/15 13:13:29;;;;;;;0.43;0.40;;;;;;;;;;5035313;28;20075;-75
2022/03/15 13:16:08;;;;;;;0.50;0.45;;;;;;;;;;5039157;28;20036;-75
2022/03/15 13:18:37;;;;;;;0.52;0.22;;;;;;;;;;5030545;28;20037;-75
2022/03/15 13:21:12;;;;;;;0.43;0.43;;;;;;;;;;5027848;28;20111;-75
2022/03/15 13:23:45;;;;;;;0.43;0.28;;;;;;;;;;5028845;28;20025;-75
2022/03/15 13:26:12;;;;;;;0.25;0.25;;;;;;;;;;5043778;28;20035;-72
2022/03/15 13:29:05;;;;;;;0.28;0.28;;;;;;;;;;5027047;28;20033;-74
2022/03/15 13:31:30;;;;;;;1.10;0.47;;;;;;;;;;5024799;28;20037;-75
2022/03/15 13:34:00;;;;;;;1.33;0.82;;;;;;;;;;5035529;28;20042;-75
2022/03/15 13:36:37;;;;;;;0.50;0.50;;;;;;;;;;5041193;28;20029;-76
2022/03/15 13:39:07;;;;;;;0.13;0.13;;;;;;;;;;5029917;28;20443;-75
2022/03/15 13:41:43;;;;;;;1.88;0.68;;;;;;;;;;5025516;28;20588;-75
2022/03/15 13:44:15;;;;;;;2.20;0.47;;;;;;;;;;5015330;28;20366;-76
2022/03/15 13:46:43;;;;;;;0.10;0.10;;;;;;;;;;5031726;28;20017;-75
2022/03/15 13:49:20;;;;;;;0.25;0.10;;;;;;;;;;5031237;28;20316;-75
2022/03/15 13:51:49;;;;;;;0.20;0.20;;;;;;;;;;5028431;28;20018;-73
2022/03/15 13:54:17;;;;;;;0.10;0.10;;;;;;;;;;5026206;28;20104;-72
2022/03/15 13:56:51;;;;;;;0.68;0.52;;;;;;;;;;5029673;28;20442;-73
2022/03/15 13:59:18;;;;;;;2.03;0.95;;;;;;;;;;5032245;28;20029;-76
2022/03/15 14:01:48;;;;;;;0.00;0.00;;;;;;;;;;5037761;28;20025;-75
2022/03/15 14:04:16;;;;;;;0.00;0.00;;;;;;;;;;5030389;28;20045;-74
2022/03/15 14:06:44;;;;;;;0.00;0.00;;;;;;;;;;5032917;28;20060;-73
2022/03/15 14:09:25;;;;;;;0.10;0.10;;;;;;;;;;5047390;28;20366;-73
2022/03/15 14:12:11;;;;;;;0.22;0.15;;;;;;;;;;5025768;28;20107;-74
2022/03/15 14:14:53;;;;;;;0.20;0.20;;;;;;;;;;5024098;28;20425;-75
2022/03/15 14:17:26;;;;;;;0.38;0.30;;;;;;;;;;5028953;28;20105;-76
2022/03/15 14:19:55;;;;;;;1.10;0.80;;;;;;;;;;5032952;28;20029;-77
2022/03/15 14:22:23;;;;;;;1.42;0.65;;;;;;;;;;5030707;28;20083;-76
2022/03/15 14:24:52;;;;;;;2.13;0.50;;;;;;;;;;5042585;28;20048;-76
2022/03/15 14:27:18;;;;;;;0.35;0.32;;;;;;;;;;5031156;28;20040;-78
2022/03/15 14:30:00;;;;;;;0.20;0.20;;;;;;;;;;5033840;28;20021;-76
2022/03/15 14:32:29;;;;;;;0.30;0.30;;;;;;;;;;5027836;28;20493;-77
2022/03/15 14:35:04;;;;;;;0.20;0.20;;;;;;;;;;5031977;28;20057;-77
2022/03/15 14:37:31;;;;;;;0.25;0.25;;;;;;;;;;5030977;28;20036;-78
2022/03/15 14:40:12;;;;;;;0.00;0.00;;;;;;;;;;5039231;28;20082;-78
2022/03/15 14:42:40;;;;;;;0.65;0.65;;;;;;;;;;5033689;28;20045;-76
2022/03/15 14:45:12;;;;;;;0.20;0.20;;;;;;;;;;5032790;28;20030;-76
2022/03/15 14:47:44;;;;;;;0.15;0.15;;;;;;;;;;5026707;28;20026;-77
2022/03/15 14:50:11;;;;;;;0.07;0.07;;;;;;;;;;5046969;28;20021;-77
2022/03/15 14:52:37;;;;;;;0.03;0.03;;;;;;;;;;5029657;28;20329;-78
2022/03/15 14:55:03;;;;;;;0.20;0.20;;;;;;;;;;5032888;28;20025;-77